CKL5 weather

Shoal Lake Airport
Shoal Lake, Manitoba, Canada

Public forecast

Using degrees Celsius for public forecast. Weather courtesy of forecast.io.

METAR (pilot weather report)

Closest report is Brandon Municipal Airport, 41.5 nm (76.8 km) SE. Retrieved 2019/05/19 21:00 UTC (55 minutes ago):

CYBR 192100Z 06021G26KT 15SM FEW055 BKN250 14/M01 A3010 RMK SC1CI6 SLP209 DENSITY ALT 1400FT

TAF (pilot weather forecast)

Forecast is more than 6 hours old.

Closest forecast is Brandon Municipal Airport, 41.5 nm (76.8 km) SE. Retrieved 2019/05/19 12:42 UTC (9 hours ago):

TAF TAF CYBR 191138Z 1912/1924 04012KT P6SM BKN250 FM191800 05015KT P6SM SCT040 BKN220 RMK NXT FCST BY 191800Z